Depesza METAR lotniska Warszawa-Okęcie

METAR = EPWA 301200Z 29010KT 8000 FEW016 08/04 Q1023 BECMG BKN015

STACJA......... EPWA - Warszawa-Okęcie (WAW)
POMIAR......... Thu Oct 30, 13:00 CET
TERAZ.......... Thu Oct 30, 13:12 CET
CZAS........... 12 min temu
WIATR.......... zachodni północno-zachodni (WNW) z prędkością 19 km/h
WIDZIALNOŚĆ.. 8000 metrów
CHMURY......... zachmurzenie niewielkie (1/8-2/8)
TEMPERATURA.... 8°C
T.PUNKTU ROSY.. 4°C
WILGOTNOŚĆ... 76%
T.ODCZUWALNA... 5°C
CIŚNIENIE..... 1023 hPa
PROGNOZA....... nastąpi zmiana widzialności do BKN015 metrów

Depesza METAR lotniska Kraków-Balice

METAR = EPKK 301200Z 27010KT CAVOK 10/05 Q1024

STACJA......... EPKK - Kraków-Balice (KRK)
POMIAR......... Thu Oct 30, 13:00 CET
TERAZ.......... Thu Oct 30, 13:12 CET
CZAS........... 12 min temu
WIATR.......... zachodni (W) z prędkością 19 km/h
WIDZIALNOŚĆ.. powyżej 10 kilometrów
CHMURY......... bezchmurne niebo
TEMPERATURA.... 10°C
T.PUNKTU ROSY.. 5°C
WILGOTNOŚĆ... 71%
T.ODCZUWALNA... 8°C
CIŚNIENIE..... 1024 hPa

Depesza METAR lotniska Łódź-Lublinek

METAR = EPLL 301200Z 25009KT 8000 BKN023 08/04 Q1024

STACJA......... EPLL - Łódź-Lublinek (LCJ)
POMIAR......... Thu Oct 30, 13:00 CET
TERAZ.......... Thu Oct 30, 13:12 CET
CZAS........... 12 min temu
WIATR.......... zachodni południowo-zachodni (WSW) z prędkością 17 km/h
WIDZIALNOŚĆ.. 8000 metrów
CHMURY......... zachmurzenie średnie (5/8-7/8)
TEMPERATURA.... 8°C
T.PUNKTU ROSY.. 4°C
WILGOTNOŚĆ... 76%
T.ODCZUWALNA... 5°C
CIŚNIENIE..... 1024 hPa

Depesza METAR lotniska Wrocław-Strachowice

METAR = EPWR 301200Z 28006KT 240V310 9000 FEW020 BKN029 11/05 Q1025

STACJA......... EPWR - Wrocław-Strachowice (WRO)
POMIAR......... Thu Oct 30, 13:00 CET
TERAZ.......... Thu Oct 30, 13:12 CET
CZAS........... 12 min temu
WIATR.......... zachodni (W) z prędkością 11 km/h
WIDZIALNOŚĆ.. 9000 metrów
CHMURY......... zachmurzenie średnie (5/8-7/8)
TEMPERATURA.... 11°C
T.PUNKTU ROSY.. 5°C
WILGOTNOŚĆ... 67%
CIŚNIENIE..... 1025 hPa

Depesza METAR lotniska Katowice-Pyrzowice

METAR = EPKT 301200Z 25007KT 9999 FEW023 09/03 Q1024

STACJA......... EPKT - Katowice-Pyrzowice (KTW)
POMIAR......... Thu Oct 30, 13:00 CET
TERAZ.......... Thu Oct 30, 13:12 CET
CZAS........... 12 min temu
WIATR.......... zachodni południowo-zachodni (WSW) z prędkością 13 km/h
WIDZIALNOŚĆ.. powyżej 10 kilometrów
CHMURY......... zachmurzenie niewielkie (1/8-2/8)
TEMPERATURA.... 9°C
T.PUNKTU ROSY.. 3°C
WILGOTNOŚĆ... 66%
T.ODCZUWALNA... 7°C
CIŚNIENIE..... 1024 hPa

Depesza METAR lotniska Gdańsk

METAR = EPGD 301200Z 32009KT 9999 FEW019 10/05 Q1022

STACJA......... EPGD - Gdańsk im. Lecha Wałęsy (GDN)
POMIAR......... Thu Oct 30, 13:00 CET
TERAZ.......... Thu Oct 30, 13:12 CET
CZAS........... 12 min temu
WIATR.......... północno zachodni (NW) z prędkością 17 km/h
WIDZIALNOŚĆ.. powyżej 10 kilometrów
CHMURY......... zachmurzenie niewielkie (1/8-2/8)
TEMPERATURA.... 10°C
T.PUNKTU ROSY.. 5°C
WILGOTNOŚĆ... 71%
T.ODCZUWALNA... 8°C
CIŚNIENIE..... 1022 hPa

Depesza METAR lotniska Poznań-Ławica

METAR = EPPO 301200Z 26004KT 2500 BR OVC004 07/06 Q1024

STACJA......... EPPO - Poznań-Ławica (POZ)
POMIAR......... Thu Oct 30, 13:00 CET
TERAZ.......... Thu Oct 30, 13:12 CET
CZAS........... 12 min temu
WIATR.......... zachodni (W) z prędkością 7 km/h
WIDZIALNOŚĆ.. 2500 metrów
WARUNKI........ zamglenie 
CHMURY......... zachmurzenie całkowite (8/8)
TEMPERATURA.... 7°C
T.PUNKTU ROSY.. 6°C
WILGOTNOŚĆ... 93%
T.ODCZUWALNA... 6°C
CIŚNIENIE..... 1024 hPa

Depesza METAR lotniska Rzeszów-Jasionka

METAR = EPRZ 301200Z 26007KT CAVOK 10/04 Q1024

STACJA......... EPRZ - Rzeszów-Jasionka (RZE)
POMIAR......... Thu Oct 30, 13:00 CET
TERAZ.......... Thu Oct 30, 13:12 CET
CZAS........... 12 min temu
WIATR.......... zachodni (W) z prędkością 13 km/h
WIDZIALNOŚĆ.. powyżej 10 kilometrów
CHMURY......... bezchmurne niebo
TEMPERATURA.... 10°C
T.PUNKTU ROSY.. 4°C
WILGOTNOŚĆ... 67%
T.ODCZUWALNA... 8°C
CIŚNIENIE..... 1024 hPa

Depesza METAR lotniska Szczecin-Goleniów

METAR = EPSC 301200Z VRB03KT 9999 FEW017 12/08 Q1024

STACJA......... EPSC - Szczecin-Goleniów (SZZ)
POMIAR......... Thu Oct 30, 13:00 CET
TERAZ.......... Thu Oct 30, 13:12 CET
CZAS........... 12 min temu
WIATR.......... zmienny z prędkością 6 km/h
WIDZIALNOŚĆ.. powyżej 10 kilometrów
CHMURY......... zachmurzenie niewielkie (1/8-2/8)
TEMPERATURA.... 12°C
T.PUNKTU ROSY.. 8°C
WILGOTNOŚĆ... 77%
CIŚNIENIE..... 1024 hPa

Depesza METAR lotniska Lublin-Świdnik

METAR = EPLB 170930Z 08006KT 2000 -RA BR FEW006 OVC011 12/11 Q1009

STACJA......... EPLB - Lublin-Świdnik (LUZ)
POMIAR......... Fri Oct 17, 10:30 CEST
TERAZ.......... Thu Oct 30, 13:12 CET
CZAS........... 315:42 godz temu
WIATR.......... wschodni (E) z prędkością 11 km/h
WIDZIALNOŚĆ.. 2000 metrów
WARUNKI........ słaby: deszcz  & zamglenie 
CHMURY......... zachmurzenie całkowite (8/8)
TEMPERATURA.... 12°C
T.PUNKTU ROSY.. 11°C
WILGOTNOŚĆ... 94%
CIŚNIENIE..... 1009 hPa

Sprawdź też: prognoza pogody dla miast w Polsce!